createdAt,value
2019-03-11T00:01:34.910Z,2.53
2019-03-11T00:04:07.897Z,2.50
2019-03-11T00:06:37.916Z,2.83
2019-03-11T00:09:07.347Z,3.17
2019-03-11T00:11:36.772Z,2.73
2019-03-11T00:14:25.582Z,2.83
2019-03-11T00:16:55.000Z,2.93
2019-03-11T00:19:24.537Z,2.67
2019-03-11T00:21:54.027Z,2.80
2019-03-11T00:24:42.858Z,2.37
2019-03-11T00:27:12.395Z,3.53
2019-03-11T00:29:41.798Z,2.70
2019-03-11T00:32:11.719Z,2.80
2019-03-11T00:35:00.541Z,2.13
2019-03-11T00:37:29.965Z,1.70
2019-03-11T00:39:59.394Z,1.80
2019-03-11T00:42:28.847Z,1.20
2019-03-11T00:45:17.799Z,1.17
2019-03-11T00:47:47.218Z,1.60
2019-03-11T00:50:16.807Z,1.83
2019-03-11T00:52:46.376Z,1.63
2019-03-11T00:55:18.714Z,2.60
2019-03-11T00:57:51.075Z,2.17
2019-03-11T01:03:22.139Z,2.00
2019-03-11T01:06:05.018Z,2.50
2019-03-11T01:08:34.678Z,2.40
2019-03-11T01:11:04.086Z,2.27
2019-03-11T01:13:33.482Z,2.60
2019-03-11T01:16:02.929Z,2.53
2019-03-11T01:18:32.439Z,2.77
2019-03-11T01:21:01.961Z,3.27
2019-03-11T01:23:31.551Z,3.03
2019-03-11T01:26:00.933Z,3.00
2019-03-11T01:28:30.407Z,2.70
2019-03-11T01:30:59.803Z,3.53
2019-03-11T01:33:49.019Z,3.20
2019-03-11T01:36:31.444Z,3.90
2019-03-11T01:39:01.004Z,3.70
2019-03-11T01:41:30.409Z,3.60
2019-03-11T01:43:59.906Z,3.67
2019-03-11T01:46:29.321Z,4.03
2019-03-11T01:48:58.788Z,3.47
2019-03-11T01:51:48.249Z,3.70
2019-03-11T01:54:17.795Z,3.90
2019-03-11T01:56:47.267Z,3.37
2019-03-11T01:59:16.731Z,3.50
2019-03-11T02:01:48.391Z,3.20
2019-03-11T02:04:17.446Z,2.70
2019-03-11T02:06:46.953Z,2.70
2019-03-11T02:09:16.359Z,2.80
2019-03-11T02:11:45.875Z,2.53
2019-03-11T02:14:15.284Z,2.83
2019-03-11T02:16:44.750Z,2.43
2019-03-11T02:19:14.175Z,2.90
2019-03-11T02:21:43.579Z,3.00
2019-03-11T02:24:13.004Z,3.00
2019-03-11T02:27:01.794Z,2.80
2019-03-11T02:29:31.196Z,2.53
2019-03-11T02:32:00.702Z,3.00
2019-03-11T02:34:30.566Z,3.20
2019-03-11T02:36:59.968Z,2.90
2019-03-11T02:39:29.385Z,2.97
2019-03-11T02:41:58.894Z,3.80
2019-03-11T02:44:28.381Z,3.10
2019-03-11T02:47:17.151Z,3.47
2019-03-11T02:49:46.554Z,3.93
2019-03-11T02:52:15.950Z,4.10
2019-03-11T02:54:45.455Z,4.03
2019-03-11T02:57:28.133Z,4.37
2019-03-11T02:59:57.573Z,3.13
2019-03-11T03:02:28.637Z,3.97
2019-03-11T03:04:59.661Z,4.37
2019-03-11T03:07:29.080Z,4.27
2019-03-11T03:09:58.476Z,5.00
2019-03-11T03:12:28.076Z,4.30
2019-03-11T03:15:10.189Z,4.63
2019-03-11T03:17:39.596Z,4.50
2019-03-11T03:20:11.764Z,4.70
2019-03-11T03:22:41.198Z,4.50
2019-03-11T03:25:12.123Z,3.87
2019-03-11T03:27:41.555Z,4.90
2019-03-11T03:30:14.326Z,4.23
2019-03-11T03:32:43.863Z,4.20
2019-03-11T03:35:14.491Z,4.30
2019-03-11T03:37:43.988Z,4.10
2019-03-11T03:40:25.967Z,4.23
2019-03-11T03:42:55.527Z,3.80
2019-03-11T03:45:28.629Z,3.83
2019-03-11T03:47:58.954Z,3.43
2019-03-11T03:50:31.066Z,2.93
2019-03-11T03:53:00.664Z,3.37
2019-03-11T03:55:30.123Z,3.00
2019-03-11T03:57:59.555Z,3.17
2019-03-11T04:00:29.053Z,3.03
2019-03-11T04:02:58.540Z,3.03
2019-03-11T04:05:28.045Z,3.07
2019-03-11T04:07:57.468Z,3.47
2019-03-11T04:10:26.860Z,3.07
2019-03-11T04:12:56.507Z,2.87
2019-03-11T04:15:26.217Z,2.23
2019-03-11T04:17:55.761Z,2.50
2019-03-11T04:20:26.631Z,3.03
2019-03-11T04:22:56.183Z,2.50
2019-03-11T04:25:25.612Z,2.80
2019-03-11T04:27:55.038Z,2.40
2019-03-11T04:30:26.515Z,2.73
2019-03-11T04:32:56.011Z,4.07
2019-03-11T04:35:26.738Z,2.83
2019-03-11T04:37:56.154Z,2.90
2019-03-11T04:40:46.886Z,3.07
2019-03-11T04:43:16.314Z,2.73
2019-03-11T04:45:47.312Z,2.63
2019-03-11T04:48:29.905Z,2.87
2019-03-11T04:50:59.321Z,3.00
2019-03-11T04:53:28.757Z,3.40
2019-03-11T04:56:17.576Z,3.60
2019-03-11T04:58:47.014Z,3.50
2019-03-11T05:01:35.794Z,4.77
2019-03-11T05:04:05.193Z,4.47
2019-03-11T05:06:34.707Z,4.60
2019-03-11T05:09:17.498Z,5.90
2019-03-11T05:11:46.935Z,5.60
2019-03-11T05:14:16.344Z,5.83
2019-03-11T05:16:45.882Z,6.10
2019-03-11T05:19:20.991Z,5.63
2019-03-11T05:21:50.429Z,5.50
2019-03-11T05:24:20.097Z,5.53
2019-03-11T05:26:49.603Z,5.80
2019-03-11T05:29:19.028Z,5.20
2019-03-11T05:31:48.534Z,4.40
2019-03-11T05:34:18.607Z,3.67
2019-03-11T05:36:49.625Z,3.67
2019-03-11T05:39:19.142Z,3.37
2019-03-11T05:41:48.539Z,3.40
2019-03-11T05:44:18.057Z,3.07
2019-03-11T05:46:47.490Z,2.40
2019-03-11T05:49:16.910Z,2.77
2019-03-11T05:51:46.350Z,2.63
2019-03-11T05:54:15.818Z,2.83
2019-03-11T05:56:45.226Z,2.80
2019-03-11T05:59:14.624Z,2.50
2019-03-11T06:01:44.046Z,2.40
2019-03-11T06:04:13.492Z,2.50
2019-03-11T06:06:43.012Z,2.37
2019-03-11T06:09:12.447Z,2.23
2019-03-11T06:11:59.965Z,2.37
2019-03-11T06:14:42.655Z,2.67
2019-03-11T06:17:12.080Z,2.33
2019-03-11T06:19:41.602Z,2.97
2019-03-11T06:22:14.259Z,3.20
2019-03-11T06:24:56.688Z,3.20
2019-03-11T06:27:26.156Z,3.40
2019-03-11T06:29:55.544Z,3.00
2019-03-11T06:32:25.074Z,3.90
2019-03-11T06:35:14.254Z,4.27
2019-03-11T06:37:45.409Z,4.03
2019-03-11T06:40:15.091Z,4.13
2019-03-11T06:42:47.443Z,5.17
2019-03-11T06:45:16.862Z,5.20
2019-03-11T06:47:46.406Z,5.57
2019-03-11T06:50:17.263Z,5.40
2019-03-11T06:52:46.675Z,5.67
2019-03-11T06:55:16.127Z,5.33
2019-03-11T06:57:47.009Z,5.03
2019-03-11T07:00:18.727Z,5.23
2019-03-11T07:03:01.041Z,5.87
2019-03-11T07:05:30.471Z,5.73
2019-03-11T07:07:59.951Z,6.23
2019-03-11T07:10:29.689Z,6.17
2019-03-11T07:12:59.076Z,6.57
2019-03-11T07:15:28.514Z,7.03
2019-03-11T07:17:58.015Z,7.20
2019-03-11T07:20:27.463Z,6.87
2019-03-11T07:22:56.901Z,6.40
2019-03-11T07:25:27.930Z,6.93
2019-03-11T07:27:57.336Z,6.83
2019-03-11T07:30:26.834Z,6.57
2019-03-11T07:33:09.645Z,6.23
2019-03-11T07:35:39.144Z,6.40
2019-03-11T07:38:08.928Z,6.20
2019-03-11T07:40:38.365Z,7.60
2019-03-11T07:43:07.816Z,6.43
2019-03-11T07:45:37.290Z,6.43
2019-03-11T07:48:06.743Z,6.23
2019-03-11T07:50:36.382Z,6.27
2019-03-11T07:53:05.870Z,5.87
2019-03-11T07:55:35.291Z,5.80
2019-03-11T07:58:04.741Z,6.30
2019-03-11T08:00:34.492Z,6.03
2019-03-11T08:03:03.916Z,5.97
2019-03-11T08:05:33.421Z,6.37
2019-03-11T08:08:03.209Z,6.23
2019-03-11T08:10:35.282Z,6.77
2019-03-11T08:13:04.887Z,5.93
2019-03-11T08:15:34.324Z,7.37
2019-03-11T08:18:03.763Z,7.93
2019-03-11T08:20:33.307Z,7.57
2019-03-11T08:23:02.916Z,8.53
2019-03-11T08:25:33.177Z,9.10
2019-03-11T08:28:02.920Z,9.10
2019-03-11T08:30:50.710Z,8.80
2019-03-11T08:33:20.181Z,9.03
2019-03-11T08:35:49.694Z,7.17
2019-03-11T08:38:20.980Z,8.30
2019-03-11T08:40:50.550Z,8.03
2019-03-11T08:43:20.117Z,8.00
2019-03-11T08:45:49.505Z,6.60
2019-03-11T08:48:18.936Z,9.30
2019-03-11T08:50:48.511Z,9.17
2019-03-11T08:53:17.889Z,9.37
2019-03-11T08:55:47.389Z,9.17
2019-03-11T08:58:18.357Z,8.00
2019-03-11T09:00:48.531Z,9.07
2019-03-11T09:03:17.993Z,8.57
2019-03-11T09:05:47.632Z,7.97
2019-03-11T09:08:17.197Z,7.60
2019-03-11T09:10:46.627Z,7.87
2019-03-11T09:13:16.100Z,8.20
2019-03-11T09:15:48.600Z,7.50
2019-03-11T09:18:18.054Z,6.60
2019-03-11T09:20:47.552Z,7.03
2019-03-11T09:23:17.162Z,7.07
2019-03-11T09:25:46.941Z,6.57
2019-03-11T09:28:18.749Z,7.30
2019-03-11T09:30:48.355Z,8.23
2019-03-11T09:33:18.257Z,6.90
2019-03-11T09:35:47.865Z,7.20
2019-03-11T09:38:17.281Z,7.63
2019-03-11T09:40:50.579Z,7.90
2019-03-11T09:43:20.745Z,7.90
2019-03-11T09:45:50.266Z,6.80
2019-03-11T09:48:20.067Z,7.70
2019-03-11T09:50:49.512Z,7.30
2019-03-11T09:53:18.921Z,6.60
2019-03-11T09:55:48.431Z,6.07
2019-03-11T09:58:18.227Z,6.50
2019-03-11T10:00:47.699Z,5.73
2019-03-11T10:03:17.164Z,5.57
2019-03-11T10:06:00.056Z,5.37
2019-03-11T10:08:29.470Z,6.00
2019-03-11T10:10:59.216Z,5.60
2019-03-11T10:13:28.635Z,6.60
2019-03-11T10:15:58.068Z,6.50
2019-03-11T10:18:27.507Z,6.77
2019-03-11T10:20:57.503Z,6.77
2019-03-11T10:23:31.934Z,6.33
2019-03-11T10:25:58.157Z,5.97
2019-03-11T10:28:27.607Z,5.77
2019-03-11T10:30:57.365Z,5.00
2019-03-11T10:33:27.009Z,4.43
2019-03-11T10:35:56.470Z,4.37
2019-03-11T10:38:26.196Z,3.20
2019-03-11T10:40:55.807Z,3.13
2019-03-11T10:43:25.200Z,2.70
2019-03-11T10:45:54.716Z,2.63
2019-03-11T10:48:24.468Z,2.47
2019-03-11T10:50:54.266Z,2.53
2019-03-11T10:53:23.813Z,2.30
2019-03-11T10:55:53.474Z,2.33
2019-03-11T10:58:23.008Z,2.63
2019-03-11T11:00:52.556Z,2.47
2019-03-11T11:03:22.607Z,2.40
2019-03-11T11:05:54.773Z,2.80
2019-03-11T11:08:24.201Z,2.40
2019-03-11T11:11:14.805Z,2.97
2019-03-11T11:13:44.460Z,2.90
2019-03-11T11:16:13.972Z,3.80
2019-03-11T11:18:43.366Z,3.13
2019-03-11T11:21:12.946Z,2.70
2019-03-11T11:23:42.399Z,2.17
2019-03-11T11:26:11.833Z,2.17
2019-03-11T11:28:41.297Z,2.80
2019-03-11T11:31:10.707Z,2.53
2019-03-11T11:33:40.533Z,2.20
2019-03-11T11:36:09.919Z,2.50
2019-03-11T11:38:58.705Z,2.63
2019-03-11T11:41:28.384Z,2.23
2019-03-11T11:43:57.780Z,2.00
2019-03-11T11:46:27.363Z,2.27
2019-03-11T11:48:56.800Z,2.40
2019-03-11T11:51:26.504Z,2.37
2019-03-11T11:53:56.220Z,2.20
2019-03-11T11:56:25.686Z,2.37
2019-03-11T11:58:55.588Z,2.13
2019-03-11T12:01:24.997Z,2.17
2019-03-11T12:03:54.465Z,2.00
2019-03-11T12:06:23.963Z,1.90
2019-03-11T12:08:53.375Z,2.20
2019-03-11T12:11:22.907Z,2.10
2019-03-11T12:13:58.318Z,1.90
2019-03-11T12:16:28.879Z,2.17
2019-03-11T12:18:58.284Z,1.60
2019-03-11T12:21:27.787Z,1.40
2019-03-11T12:23:57.255Z,1.97
2019-03-11T12:26:26.859Z,2.67
2019-03-11T12:28:56.273Z,2.17
2019-03-11T12:31:25.779Z,2.80
2019-03-11T12:33:55.621Z,1.83
2019-03-11T12:36:25.103Z,1.80
2019-03-11T12:38:54.578Z,1.80
2019-03-11T12:41:24.046Z,2.07
2019-03-11T12:43:55.058Z,2.00
2019-03-11T12:46:24.737Z,2.43
2019-03-11T12:49:13.587Z,1.80
2019-03-11T12:51:49.792Z,2.07
2019-03-11T12:54:15.233Z,2.47
2019-03-11T12:56:44.710Z,1.93
2019-03-11T12:59:14.210Z,2.23
2019-03-11T13:01:43.729Z,2.40
2019-03-11T13:04:13.167Z,2.10
2019-03-11T13:06:42.623Z,2.33
2019-03-11T13:09:12.045Z,2.87
2019-03-11T13:11:41.655Z,2.47
2019-03-11T13:14:11.119Z,2.70
2019-03-11T13:16:40.605Z,2.30
2019-03-11T13:19:13.432Z,2.67
2019-03-11T13:21:41.263Z,2.27
2019-03-11T13:24:11.007Z,2.20
2019-03-11T13:26:40.538Z,2.63
2019-03-11T13:29:10.253Z,3.10
2019-03-11T13:31:39.839Z,1.73
2019-03-11T13:34:09.453Z,1.50
2019-03-11T13:36:39.056Z,1.90
2019-03-11T13:39:09.188Z,2.93
2019-03-11T13:41:38.630Z,2.50
2019-03-11T13:44:09.228Z,2.53
2019-03-11T13:46:38.655Z,2.20
2019-03-11T13:49:08.179Z,2.20
2019-03-11T13:51:37.885Z,1.40
2019-03-11T13:54:07.362Z,1.90
2019-03-11T13:56:36.904Z,2.17
2019-03-11T13:59:06.389Z,1.80
2019-03-11T14:01:36.120Z,2.13
2019-03-11T14:04:05.553Z,1.77
2019-03-11T14:06:35.022Z,1.63
2019-03-11T14:09:06.846Z,1.60
2019-03-11T14:11:36.351Z,1.50
2019-03-11T14:14:05.791Z,1.97
2019-03-11T14:16:35.211Z,2.13
2019-03-11T14:19:04.708Z,2.43
2019-03-11T14:21:34.155Z,2.00
2019-03-11T14:24:50.396Z,2.23
2019-03-11T14:27:19.813Z,2.23
2019-03-11T14:29:49.221Z,2.10
2019-03-11T14:32:18.632Z,2.37
2019-03-11T14:34:48.050Z,1.70
2019-03-11T14:37:17.627Z,2.03
2019-03-11T14:39:47.211Z,2.27
2019-03-11T14:42:16.945Z,2.47
2019-03-11T14:44:47.801Z,2.17
2019-03-11T14:47:17.294Z,1.80
2019-03-11T14:49:46.806Z,2.63
2019-03-11T14:52:16.243Z,2.53
2019-03-11T14:54:47.338Z,2.10
2019-03-11T14:57:16.981Z,2.30
2019-03-11T14:59:46.689Z,2.43
2019-03-11T15:02:16.089Z,1.80
2019-03-11T15:04:45.832Z,2.67
2019-03-11T15:07:15.494Z,2.10
2019-03-11T15:09:51.456Z,2.10
2019-03-11T15:12:16.919Z,2.00
2019-03-11T15:14:46.460Z,2.10
2019-03-11T15:17:16.084Z,2.33
2019-03-11T15:19:45.686Z,2.33
2019-03-11T15:22:15.224Z,2.20
2019-03-11T15:24:44.727Z,2.13
2019-03-11T15:27:14.193Z,2.67
2019-03-11T15:29:43.608Z,2.00
2019-03-11T15:32:13.107Z,2.27
2019-03-11T15:34:48.677Z,2.17
2019-03-11T15:37:18.084Z,2.30
2019-03-11T15:39:47.567Z,2.50
2019-03-11T15:42:16.982Z,2.97
2019-03-11T15:44:46.542Z,3.00
2019-03-11T15:47:20.544Z,2.30
2019-03-11T15:49:50.065Z,2.80
2019-03-11T15:52:19.519Z,2.63
2019-03-11T15:54:48.998Z,2.17
2019-03-11T15:57:18.509Z,2.73
2019-03-11T15:59:50.905Z,2.10
2019-03-11T16:02:20.389Z,2.70
2019-03-11T16:04:50.059Z,1.80
2019-03-11T16:07:19.470Z,2.00
2019-03-11T16:09:50.448Z,2.20
2019-03-11T16:12:19.964Z,2.00
2019-03-11T16:14:50.050Z,1.93
2019-03-11T16:17:19.640Z,1.70
2019-03-11T16:19:49.087Z,2.00
2019-03-11T16:22:24.150Z,1.57
2019-03-11T16:24:49.639Z,1.93
2019-03-11T16:27:19.150Z,1.87
2019-03-11T16:29:48.560Z,1.80
2019-03-11T16:32:17.996Z,2.10
2019-03-11T16:34:47.678Z,1.93
2019-03-11T16:37:17.166Z,2.30
2019-03-11T16:39:46.589Z,1.73
2019-03-11T16:42:17.716Z,1.30
2019-03-11T16:44:47.381Z,1.90
2019-03-11T16:47:16.928Z,2.03
2019-03-11T16:49:46.448Z,1.73
2019-03-11T16:52:15.941Z,1.63
2019-03-11T16:54:45.452Z,1.90
2019-03-11T16:57:16.366Z,2.00
2019-03-11T16:59:45.801Z,2.10
2019-03-11T17:02:18.349Z,2.23
2019-03-11T17:04:47.727Z,1.93
2019-03-11T17:07:17.156Z,2.13
2019-03-11T17:09:46.553Z,2.43
2019-03-11T17:12:15.994Z,2.67
2019-03-11T17:14:45.610Z,2.20
2019-03-11T17:17:15.030Z,1.83
2019-03-11T17:19:44.467Z,2.40
2019-03-11T17:22:13.882Z,2.87
2019-03-11T17:24:44.926Z,2.30
2019-03-11T17:27:14.429Z,1.90
2019-03-11T17:29:45.431Z,1.80
2019-03-11T17:32:14.871Z,2.13
2019-03-11T17:34:44.389Z,2.23
2019-03-11T17:37:13.876Z,2.13
2019-03-11T17:39:43.362Z,1.80
2019-03-11T17:42:12.782Z,1.83
2019-03-11T17:44:42.299Z,2.10
2019-03-11T17:47:31.256Z,2.17
2019-03-11T17:50:00.971Z,2.10
2019-03-11T17:52:36.127Z,2.10
2019-03-11T17:55:08.124Z,1.67
2019-03-11T17:57:37.547Z,1.90
2019-03-11T18:00:11.892Z,2.20
2019-03-11T18:02:41.358Z,2.53
2019-03-11T18:05:10.878Z,2.40
2019-03-11T18:07:40.305Z,1.43
2019-03-11T18:10:09.829Z,2.80
2019-03-11T18:12:39.312Z,1.93
2019-03-11T18:15:12.781Z,2.20
2019-03-11T18:17:42.009Z,2.10
2019-03-11T18:20:14.285Z,2.17
2019-03-11T18:22:44.605Z,2.30
2019-03-11T18:25:16.568Z,2.23
2019-03-11T18:27:45.981Z,2.10
2019-03-11T18:30:27.483Z,1.90
2019-03-11T18:32:56.873Z,2.10
2019-03-11T18:35:26.349Z,1.97
2019-03-11T18:38:04.029Z,1.97
2019-03-11T18:40:29.393Z,2.00
2019-03-11T18:42:58.886Z,1.87
2019-03-11T18:45:28.326Z,2.07
2019-03-11T18:48:04.305Z,2.00
2019-03-11T18:50:33.863Z,1.90
2019-03-11T18:53:19.444Z,2.40
2019-03-11T18:55:49.101Z,2.43
2019-03-11T18:58:18.602Z,2.63
2019-03-11T19:00:48.017Z,2.30
2019-03-11T19:03:17.451Z,2.27
2019-03-11T19:05:46.958Z,2.10
2019-03-11T19:08:16.384Z,2.37
2019-03-11T19:10:45.863Z,2.10
2019-03-11T19:13:15.324Z,2.30
2019-03-11T19:15:44.823Z,2.53
2019-03-11T19:18:14.348Z,2.70
2019-03-11T19:20:43.869Z,2.20
2019-03-11T19:23:13.361Z,2.93
2019-03-11T19:25:42.782Z,2.67
2019-03-11T19:28:12.201Z,2.40
2019-03-11T19:30:41.618Z,2.00
2019-03-11T19:33:30.374Z,2.43
2019-03-11T19:36:02.881Z,4.53
2019-03-11T19:38:51.694Z,2.17
2019-03-11T19:41:21.204Z,2.57
2019-03-11T19:43:50.669Z,2.80
2019-03-11T19:46:20.221Z,2.33
2019-03-11T19:48:49.908Z,2.30
2019-03-11T19:51:19.468Z,2.83
2019-03-11T19:53:48.902Z,2.20
2019-03-11T19:56:18.612Z,2.87
2019-03-11T19:58:48.241Z,2.50
2019-03-11T20:01:31.700Z,2.20
2019-03-11T20:04:01.285Z,2.40
2019-03-11T20:06:30.882Z,2.57
2019-03-11T20:09:00.313Z,2.70
2019-03-11T20:11:29.839Z,2.70
2019-03-11T20:14:12.253Z,2.60
2019-03-11T20:17:04.197Z,2.23
2019-03-11T20:19:33.724Z,2.67
2019-03-11T20:22:03.208Z,2.80
2019-03-11T20:24:45.688Z,2.70
2019-03-11T20:27:15.252Z,2.37
2019-03-11T20:29:57.547Z,2.87
2019-03-11T20:32:27.049Z,3.27
2019-03-11T20:34:56.510Z,3.47
2019-03-11T20:37:25.940Z,2.60
2019-03-11T20:39:55.400Z,3.63
2019-03-11T20:42:44.308Z,3.07
2019-03-11T20:45:26.497Z,2.77
2019-03-11T20:47:56.010Z,3.60
2019-03-11T20:50:26.679Z,3.70
2019-03-11T20:52:56.186Z,3.20
2019-03-11T20:55:25.626Z,3.37
2019-03-11T20:57:55.044Z,3.10
2019-03-11T21:00:27.065Z,3.27
2019-03-11T21:02:56.629Z,3.77
2019-03-11T21:05:30.835Z,4.33
2019-03-11T21:08:00.447Z,3.23
2019-03-11T21:10:29.877Z,3.40
2019-03-11T21:12:59.420Z,2.83
2019-03-11T21:15:28.904Z,3.20
2019-03-11T21:17:58.355Z,3.43
2019-03-11T21:20:27.809Z,3.07
2019-03-11T21:22:57.252Z,3.67
2019-03-11T21:25:26.696Z,2.97
2019-03-11T21:27:56.179Z,3.30
2019-03-11T21:30:26.411Z,3.10
2019-03-11T21:32:56.011Z,2.97
2019-03-11T21:35:25.686Z,3.47
2019-03-11T21:37:55.299Z,3.47
2019-03-11T21:40:24.912Z,3.50
2019-03-11T21:42:54.554Z,2.80
2019-03-11T21:45:33.558Z,2.80
2019-03-11T21:47:55.229Z,3.40
2019-03-11T21:50:26.441Z,2.80
2019-03-11T21:52:57.706Z,3.03
2019-03-11T21:55:27.253Z,2.93
2019-03-11T21:57:56.724Z,3.00
2019-03-11T22:00:34.299Z,2.80
2019-03-11T22:02:57.281Z,3.33
2019-03-11T22:05:26.789Z,3.17
2019-03-11T22:07:56.247Z,2.70
2019-03-11T22:10:25.684Z,2.77
2019-03-11T22:12:55.114Z,3.40
2019-03-11T22:15:25.845Z,3.30
2019-03-11T22:17:55.287Z,3.40
2019-03-11T22:20:24.688Z,3.03
2019-03-11T22:22:54.191Z,2.93
2019-03-11T22:25:23.620Z,3.00
2019-03-11T22:27:53.046Z,2.83
2019-03-11T22:30:23.597Z,3.13
2019-03-11T22:32:53.036Z,2.87
2019-03-11T22:35:22.541Z,3.40
2019-03-11T22:37:51.993Z,3.47
2019-03-11T22:40:21.453Z,3.60
2019-03-11T22:42:50.876Z,3.63
2019-03-11T22:45:21.449Z,3.67
2019-03-11T22:48:04.208Z,3.70
2019-03-11T22:50:33.639Z,3.13
2019-03-11T22:53:04.807Z,3.27
2019-03-11T22:55:47.586Z,3.40
2019-03-11T22:58:17.078Z,3.30
2019-03-11T23:00:51.194Z,3.93
2019-03-11T23:03:20.811Z,4.33
2019-03-11T23:05:57.579Z,3.63
2019-03-11T23:08:21.542Z,4.80
2019-03-11T23:10:50.942Z,4.53
2019-03-11T23:13:20.383Z,4.30
2019-03-11T23:16:02.565Z,4.93
2019-03-11T23:18:32.027Z,4.23
2019-03-11T23:21:01.446Z,4.07
2019-03-11T23:23:30.849Z,4.63
2019-03-11T23:26:00.265Z,3.73
2019-03-11T23:28:29.867Z,4.60
2019-03-11T23:30:59.278Z,4.50
2019-03-11T23:33:28.776Z,5.43
2019-03-11T23:35:58.186Z,4.87
2019-03-11T23:38:27.597Z,5.50
2019-03-11T23:40:57.076Z,4.90
2019-03-11T23:43:26.504Z,5.03
2019-03-11T23:45:56.125Z,5.13
2019-03-11T23:48:25.616Z,5.27
2019-03-11T23:50:55.061Z,5.90
2019-03-11T23:53:44.217Z,5.03
2019-03-11T23:56:26.594Z,6.10
2019-03-11T23:58:56.409Z,5.53
